sensor_id;sensor_type;location;lat;lon;timestamp;P1;durP1;ratioP1;P2;durP2;ratioP2
69854;SDS011;57146;48.140;16.304;2024-03-07T00:01:02;19.38;;;7.35;;
69854;SDS011;57146;48.140;16.304;2024-03-07T00:03:29;17.55;;;7.30;;
69854;SDS011;57146;48.140;16.304;2024-03-07T00:05:56;19.02;;;7.63;;
69854;SDS011;57146;48.140;16.304;2024-03-07T00:08:22;16.83;;;6.93;;
69854;SDS011;57146;48.140;16.304;2024-03-07T00:10:50;18.38;;;7.47;;
69854;SDS011;57146;48.140;16.304;2024-03-07T00:13:16;16.38;;;6.85;;
69854;SDS011;57146;48.140;16.304;2024-03-07T00:15:43;17.60;;;7.03;;
69854;SDS011;57146;48.140;16.304;2024-03-07T00:18:10;18.65;;;7.20;;
69854;SDS011;57146;48.140;16.304;2024-03-07T00:20:38;18.13;;;7.73;;
69854;SDS011;57146;48.140;16.304;2024-03-07T00:23:05;18.15;;;7.20;;
69854;SDS011;57146;48.140;16.304;2024-03-07T00:25:31;19.45;;;7.75;;
69854;SDS011;57146;48.140;16.304;2024-03-07T00:27:58;19.48;;;7.95;;
69854;SDS011;57146;48.140;16.304;2024-03-07T00:30:25;20.27;;;7.55;;
69854;SDS011;57146;48.140;16.304;2024-03-07T00:32:52;21.70;;;8.70;;
69854;SDS011;57146;48.140;16.304;2024-03-07T00:35:19;19.10;;;7.65;;
69854;SDS011;57146;48.140;16.304;2024-03-07T00:37:46;20.95;;;8.07;;
69854;SDS011;57146;48.140;16.304;2024-03-07T00:40:13;21.27;;;8.40;;
69854;SDS011;57146;48.140;16.304;2024-03-07T00:42:40;22.85;;;9.07;;
69854;SDS011;57146;48.140;16.304;2024-03-07T00:45:07;23.63;;;9.43;;
69854;SDS011;57146;48.140;16.304;2024-03-07T00:47:34;21.10;;;8.10;;
69854;SDS011;57146;48.140;16.304;2024-03-07T00:50:01;22.50;;;8.38;;
69854;SDS011;57146;48.140;16.304;2024-03-07T00:52:28;23.52;;;9.35;;
69854;SDS011;57146;48.140;16.304;2024-03-07T00:54:55;26.05;;;9.80;;
69854;SDS011;57146;48.140;16.304;2024-03-07T00:57:21;21.37;;;8.67;;
69854;SDS011;57146;48.140;16.304;2024-03-07T00:59:48;23.52;;;9.52;;
69854;SDS011;57146;48.140;16.304;2024-03-07T01:02:15;25.10;;;9.40;;
69854;SDS011;57146;48.140;16.304;2024-03-07T01:04:42;19.05;;;8.18;;
69854;SDS011;57146;48.140;16.304;2024-03-07T01:07:09;20.83;;;8.82;;
69854;SDS011;57146;48.140;16.304;2024-03-07T01:09:36;20.07;;;7.93;;
69854;SDS011;57146;48.140;16.304;2024-03-07T01:12:03;18.45;;;8.10;;
69854;SDS011;57146;48.140;16.304;2024-03-07T01:14:31;23.15;;;8.60;;
69854;SDS011;57146;48.140;16.304;2024-03-07T01:16:58;22.08;;;8.75;;
69854;SDS011;57146;48.140;16.304;2024-03-07T01:19:25;22.20;;;8.52;;
69854;SDS011;57146;48.140;16.304;2024-03-07T01:21:52;22.57;;;8.03;;
69854;SDS011;57146;48.140;16.304;2024-03-07T01:24:18;18.33;;;7.80;;
69854;SDS011;57146;48.140;16.304;2024-03-07T01:26:46;19.77;;;8.40;;
69854;SDS011;57146;48.140;16.304;2024-03-07T01:29:13;20.05;;;8.30;;
69854;SDS011;57146;48.140;16.304;2024-03-07T01:31:40;18.98;;;7.53;;
69854;SDS011;57146;48.140;16.304;2024-03-07T01:34:07;20.90;;;8.03;;
69854;SDS011;57146;48.140;16.304;2024-03-07T01:36:34;19.58;;;8.45;;
69854;SDS011;57146;48.140;16.304;2024-03-07T01:39:01;19.02;;;8.35;;
69854;SDS011;57146;48.140;16.304;2024-03-07T01:41:28;20.65;;;8.35;;
69854;SDS011;57146;48.140;16.304;2024-03-07T01:43:55;19.77;;;8.80;;
69854;SDS011;57146;48.140;16.304;2024-03-07T01:46:22;21.33;;;8.60;;
69854;SDS011;57146;48.140;16.304;2024-03-07T01:48:49;19.35;;;8.15;;
69854;SDS011;57146;48.140;16.304;2024-03-07T01:51:15;20.35;;;8.02;;
69854;SDS011;57146;48.140;16.304;2024-03-07T01:53:42;21.42;;;8.75;;
69854;SDS011;57146;48.140;16.304;2024-03-07T01:56:09;21.80;;;9.45;;
69854;SDS011;57146;48.140;16.304;2024-03-07T01:58:37;22.97;;;9.90;;
69854;SDS011;57146;48.140;16.304;2024-03-07T02:01:04;23.08;;;9.60;;
69854;SDS011;57146;48.140;16.304;2024-03-07T02:03:31;23.58;;;8.77;;
69854;SDS011;57146;48.140;16.304;2024-03-07T02:05:58;21.13;;;9.07;;
69854;SDS011;57146;48.140;16.304;2024-03-07T02:08:25;22.38;;;9.18;;
69854;SDS011;57146;48.140;16.304;2024-03-07T02:10:52;23.90;;;9.40;;
69854;SDS011;57146;48.140;16.304;2024-03-07T02:13:19;24.75;;;10.27;;
69854;SDS011;57146;48.140;16.304;2024-03-07T02:15:46;22.55;;;9.32;;
69854;SDS011;57146;48.140;16.304;2024-03-07T02:18:13;23.00;;;9.50;;
69854;SDS011;57146;48.140;16.304;2024-03-07T02:20:44;26.92;;;9.90;;
69854;SDS011;57146;48.140;16.304;2024-03-07T02:23:12;26.30;;;10.07;;
69854;SDS011;57146;48.140;16.304;2024-03-07T02:25:39;25.02;;;9.90;;
69854;SDS011;57146;48.140;16.304;2024-03-07T02:28:06;22.80;;;9.18;;
69854;SDS011;57146;48.140;16.304;2024-03-07T02:30:33;23.00;;;9.40;;
69854;SDS011;57146;48.140;16.304;2024-03-07T02:33:00;22.08;;;8.82;;
69854;SDS011;57146;48.140;16.304;2024-03-07T02:35:27;20.90;;;8.00;;
69854;SDS011;57146;48.140;16.304;2024-03-07T02:37:54;22.52;;;8.63;;
69854;SDS011;57146;48.140;16.304;2024-03-07T02:40:21;21.67;;;8.38;;
69854;SDS011;57146;48.140;16.304;2024-03-07T02:42:48;19.38;;;7.43;;
69854;SDS011;57146;48.140;16.304;2024-03-07T02:45:15;21.73;;;8.35;;
69854;SDS011;57146;48.140;16.304;2024-03-07T02:47:42;18.80;;;7.80;;
69854;SDS011;57146;48.140;16.304;2024-03-07T02:50:12;18.77;;;6.90;;
69854;SDS011;57146;48.140;16.304;2024-03-07T02:52:39;18.75;;;7.07;;
69854;SDS011;57146;48.140;16.304;2024-03-07T02:55:06;18.92;;;7.18;;
69854;SDS011;57146;48.140;16.304;2024-03-07T02:57:33;17.63;;;6.50;;
69854;SDS011;57146;48.140;16.304;2024-03-07T03:00:00;20.90;;;7.53;;
69854;SDS011;57146;48.140;16.304;2024-03-07T03:02:27;17.17;;;7.32;;
69854;SDS011;57146;48.140;16.304;2024-03-07T03:04:54;19.33;;;7.70;;
69854;SDS011;57146;48.140;16.304;2024-03-07T03:07:21;19.08;;;7.38;;
69854;SDS011;57146;48.140;16.304;2024-03-07T03:09:48;17.23;;;7.13;;
69854;SDS011;57146;48.140;16.304;2024-03-07T03:12:15;18.83;;;7.57;;
69854;SDS011;57146;48.140;16.304;2024-03-07T03:14:42;15.77;;;6.60;;
69854;SDS011;57146;48.140;16.304;2024-03-07T03:17:09;16.15;;;6.45;;
69854;SDS011;57146;48.140;16.304;2024-03-07T03:19:36;16.45;;;6.15;;
69854;SDS011;57146;48.140;16.304;2024-03-07T03:22:03;17.42;;;6.35;;
69854;SDS011;57146;48.140;16.304;2024-03-07T03:24:30;17.27;;;6.17;;
69854;SDS011;57146;48.140;16.304;2024-03-07T03:26:57;18.13;;;6.68;;
69854;SDS011;57146;48.140;16.304;2024-03-07T03:29:25;15.15;;;6.00;;
69854;SDS011;57146;48.140;16.304;2024-03-07T03:31:52;14.98;;;5.88;;
69854;SDS011;57146;48.140;16.304;2024-03-07T03:34:18;16.95;;;6.10;;
69854;SDS011;57146;48.140;16.304;2024-03-07T03:36:45;14.83;;;5.60;;
69854;SDS011;57146;48.140;16.304;2024-03-07T03:39:12;17.33;;;5.70;;
69854;SDS011;57146;48.140;16.304;2024-03-07T03:41:39;14.35;;;5.18;;
69854;SDS011;57146;48.140;16.304;2024-03-07T03:44:07;12.93;;;4.70;;
69854;SDS011;57146;48.140;16.304;2024-03-07T03:46:34;14.70;;;5.60;;
69854;SDS011;57146;48.140;16.304;2024-03-07T03:49:01;14.13;;;5.30;;
69854;SDS011;57146;48.140;16.304;2024-03-07T03:51:28;14.48;;;5.30;;
69854;SDS011;57146;48.140;16.304;2024-03-07T03:53:55;12.63;;;5.05;;
69854;SDS011;57146;48.140;16.304;2024-03-07T03:56:21;14.25;;;5.05;;
69854;SDS011;57146;48.140;16.304;2024-03-07T03:58:48;12.15;;;4.90;;
69854;SDS011;57146;48.140;16.304;2024-03-07T04:01:15;13.73;;;5.07;;
69854;SDS011;57146;48.140;16.304;2024-03-07T04:03:43;13.50;;;4.78;;
69854;SDS011;57146;48.140;16.304;2024-03-07T04:06:09;12.60;;;4.38;;
69854;SDS011;57146;48.140;16.304;2024-03-07T04:08:36;12.88;;;4.90;;
69854;SDS011;57146;48.140;16.304;2024-03-07T04:11:04;14.15;;;5.10;;
69854;SDS011;57146;48.140;16.304;2024-03-07T04:13:31;11.37;;;4.17;;
69854;SDS011;57146;48.140;16.304;2024-03-07T04:15:58;14.02;;;4.70;;
69854;SDS011;57146;48.140;16.304;2024-03-07T04:18:25;11.60;;;4.50;;
69854;SDS011;57146;48.140;16.304;2024-03-07T04:20:52;13.02;;;4.75;;
69854;SDS011;57146;48.140;16.304;2024-03-07T04:23:19;12.20;;;4.82;;
69854;SDS011;57146;48.140;16.304;2024-03-07T04:25:46;11.93;;;4.50;;
69854;SDS011;57146;48.140;16.304;2024-03-07T04:28:13;12.95;;;4.03;;
69854;SDS011;57146;48.140;16.304;2024-03-07T04:30:40;12.88;;;4.75;;
69854;SDS011;57146;48.140;16.304;2024-03-07T04:33:07;12.32;;;4.60;;
69854;SDS011;57146;48.140;16.304;2024-03-07T04:35:34;12.98;;;4.10;;
69854;SDS011;57146;48.140;16.304;2024-03-07T04:38:01;10.40;;;3.70;;
69854;SDS011;57146;48.140;16.304;2024-03-07T04:40:27;9.48;;;3.60;;
69854;SDS011;57146;48.140;16.304;2024-03-07T04:42:54;13.40;;;4.10;;
69854;SDS011;57146;48.140;16.304;2024-03-07T04:45:21;11.05;;;4.18;;
69854;SDS011;57146;48.140;16.304;2024-03-07T04:47:48;12.38;;;3.90;;
69854;SDS011;57146;48.140;16.304;2024-03-07T04:50:15;11.93;;;4.13;;
69854;SDS011;57146;48.140;16.304;2024-03-07T04:52:43;10.88;;;3.92;;
69854;SDS011;57146;48.140;16.304;2024-03-07T04:55:10;11.35;;;4.20;;
69854;SDS011;57146;48.140;16.304;2024-03-07T04:57:37;10.63;;;3.70;;
69854;SDS011;57146;48.140;16.304;2024-03-07T05:00:09;11.60;;;4.32;;
69854;SDS011;57146;48.140;16.304;2024-03-07T05:02:37;11.50;;;3.67;;
69854;SDS011;57146;48.140;16.304;2024-03-07T05:05:04;10.77;;;3.72;;
69854;SDS011;57146;48.140;16.304;2024-03-07T05:07:31;10.68;;;3.92;;
69854;SDS011;57146;48.140;16.304;2024-03-07T05:09:58;9.90;;;3.63;;
69854;SDS011;57146;48.140;16.304;2024-03-07T05:12:25;12.48;;;4.20;;
69854;SDS011;57146;48.140;16.304;2024-03-07T05:14:52;12.50;;;4.27;;
69854;SDS011;57146;48.140;16.304;2024-03-07T05:17:19;11.65;;;3.90;;
69854;SDS011;57146;48.140;16.304;2024-03-07T05:19:46;11.60;;;3.83;;
69854;SDS011;57146;48.140;16.304;2024-03-07T05:22:13;11.68;;;4.40;;
69854;SDS011;57146;48.140;16.304;2024-03-07T05:24:40;11.38;;;4.07;;
69854;SDS011;57146;48.140;16.304;2024-03-07T05:27:06;12.23;;;4.23;;
69854;SDS011;57146;48.140;16.304;2024-03-07T05:29:33;11.88;;;4.45;;
69854;SDS011;57146;48.140;16.304;2024-03-07T05:34:53;13.75;;;4.60;;
69854;SDS011;57146;48.140;16.304;2024-03-07T05:37:21;14.57;;;4.72;;
69854;SDS011;57146;48.140;16.304;2024-03-07T05:39:49;13.93;;;4.47;;
69854;SDS011;57146;48.140;16.304;2024-03-07T05:42:16;13.85;;;4.68;;
69854;SDS011;57146;48.140;16.304;2024-03-07T05:44:43;11.70;;;4.22;;
69854;SDS011;57146;48.140;16.304;2024-03-07T05:47:11;15.75;;;5.07;;
69854;SDS011;57146;48.140;16.304;2024-03-07T05:49:38;10.82;;;4.05;;
69854;SDS011;57146;48.140;16.304;2024-03-07T05:52:05;12.70;;;4.63;;
69854;SDS011;57146;48.140;16.304;2024-03-07T05:54:32;13.27;;;4.45;;
69854;SDS011;57146;48.140;16.304;2024-03-07T05:56:59;12.43;;;4.68;;
69854;SDS011;57146;48.140;16.304;2024-03-07T05:59:26;11.30;;;4.40;;
69854;SDS011;57146;48.140;16.304;2024-03-07T06:01:54;15.93;;;4.88;;
69854;SDS011;57146;48.140;16.304;2024-03-07T06:04:21;13.30;;;4.63;;
69854;SDS011;57146;48.140;16.304;2024-03-07T06:06:48;12.98;;;4.85;;
69854;SDS011;57146;48.140;16.304;2024-03-07T06:09:15;12.52;;;4.22;;
69854;SDS011;57146;48.140;16.304;2024-03-07T06:11:42;13.30;;;4.50;;
69854;SDS011;57146;48.140;16.304;2024-03-07T06:14:09;13.23;;;4.50;;
69854;SDS011;57146;48.140;16.304;2024-03-07T06:16:37;11.87;;;4.30;;
69854;SDS011;57146;48.140;16.304;2024-03-07T06:19:05;13.45;;;4.22;;
69854;SDS011;57146;48.140;16.304;2024-03-07T06:21:37;12.30;;;4.45;;
69854;SDS011;57146;48.140;16.304;2024-03-07T06:24:05;11.93;;;4.40;;
69854;SDS011;57146;48.140;16.304;2024-03-07T06:26:33;12.55;;;4.50;;
69854;SDS011;57146;48.140;16.304;2024-03-07T06:29:00;15.40;;;4.73;;
69854;SDS011;57146;48.140;16.304;2024-03-07T06:31:27;11.52;;;4.15;;
69854;SDS011;57146;48.140;16.304;2024-03-07T06:33:54;10.98;;;4.00;;
69854;SDS011;57146;48.140;16.304;2024-03-07T06:36:21;10.15;;;3.95;;
69854;SDS011;57146;48.140;16.304;2024-03-07T06:38:48;12.35;;;4.47;;
69854;SDS011;57146;48.140;16.304;2024-03-07T06:41:14;10.17;;;4.00;;
69854;SDS011;57146;48.140;16.304;2024-03-07T06:43:44;11.55;;;4.30;;
69854;SDS011;57146;48.140;16.304;2024-03-07T06:46:11;10.25;;;4.07;;
69854;SDS011;57146;48.140;16.304;2024-03-07T06:48:39;11.85;;;4.55;;
69854;SDS011;57146;48.140;16.304;2024-03-07T06:51:06;11.30;;;4.32;;
69854;SDS011;57146;48.140;16.304;2024-03-07T06:53:33;11.50;;;3.87;;
69854;SDS011;57146;48.140;16.304;2024-03-07T06:56:00;10.88;;;4.22;;
69854;SDS011;57146;48.140;16.304;2024-03-07T06:58:27;9.57;;;3.70;;
69854;SDS011;57146;48.140;16.304;2024-03-07T07:00:58;11.70;;;4.13;;
69854;SDS011;57146;48.140;16.304;2024-03-07T07:03:25;9.82;;;3.72;;
69854;SDS011;57146;48.140;16.304;2024-03-07T07:05:52;12.00;;;3.90;;
69854;SDS011;57146;48.140;16.304;2024-03-07T07:08:19;10.65;;;4.00;;
69854;SDS011;57146;48.140;16.304;2024-03-07T07:10:46;11.32;;;4.28;;
69854;SDS011;57146;48.140;16.304;2024-03-07T07:13:12;12.65;;;4.70;;
69854;SDS011;57146;48.140;16.304;2024-03-07T07:15:39;12.38;;;4.47;;
69854;SDS011;57146;48.140;16.304;2024-03-07T07:18:06;12.03;;;4.07;;
69854;SDS011;57146;48.140;16.304;2024-03-07T07:20:33;12.10;;;4.70;;
69854;SDS011;57146;48.140;16.304;2024-03-07T07:23:01;12.77;;;4.63;;
69854;SDS011;57146;48.140;16.304;2024-03-07T07:25:29;10.45;;;3.95;;
69854;SDS011;57146;48.140;16.304;2024-03-07T07:27:58;10.30;;;4.18;;
69854;SDS011;57146;48.140;16.304;2024-03-07T07:30:27;12.50;;;4.27;;
69854;SDS011;57146;48.140;16.304;2024-03-07T07:32:54;11.90;;;3.95;;
69854;SDS011;57146;48.140;16.304;2024-03-07T07:35:21;9.70;;;3.65;;
69854;SDS011;57146;48.140;16.304;2024-03-07T07:37:49;9.98;;;3.80;;
69854;SDS011;57146;48.140;16.304;2024-03-07T07:40:18;11.75;;;3.92;;
69854;SDS011;57146;48.140;16.304;2024-03-07T07:42:47;12.43;;;4.10;;
69854;SDS011;57146;48.140;16.304;2024-03-07T07:45:16;10.48;;;4.07;;
69854;SDS011;57146;48.140;16.304;2024-03-07T07:47:43;12.68;;;4.47;;
69854;SDS011;57146;48.140;16.304;2024-03-07T07:50:21;11.38;;;4.13;;
69854;SDS011;57146;48.140;16.304;2024-03-07T07:55:21;10.60;;;4.13;;
69854;SDS011;57146;48.140;16.304;2024-03-07T07:57:51;11.30;;;4.10;;
69854;SDS011;57146;48.140;16.304;2024-03-07T08:00:22;9.85;;;3.97;;
69854;SDS011;57146;48.140;16.304;2024-03-07T08:02:52;12.57;;;4.57;;
69854;SDS011;57146;48.140;16.304;2024-03-07T08:05:22;10.27;;;4.10;;
69854;SDS011;57146;48.140;16.304;2024-03-07T08:07:50;11.50;;;4.13;;
69854;SDS011;57146;48.140;16.304;2024-03-07T08:10:18;11.57;;;4.50;;
69854;SDS011;57146;48.140;16.304;2024-03-07T08:12:46;12.07;;;4.57;;
69854;SDS011;57146;48.140;16.304;2024-03-07T08:15:13;13.43;;;4.93;;
69854;SDS011;57146;48.140;16.304;2024-03-07T08:17:41;11.90;;;4.35;;
69854;SDS011;57146;48.140;16.304;2024-03-07T08:20:14;11.23;;;4.47;;
69854;SDS011;57146;48.140;16.304;2024-03-07T08:22:43;11.80;;;4.65;;
69854;SDS011;57146;48.140;16.304;2024-03-07T08:25:10;10.48;;;4.13;;
69854;SDS011;57146;48.140;16.304;2024-03-07T08:27:39;10.40;;;4.03;;
69854;SDS011;57146;48.140;16.304;2024-03-07T08:30:07;12.05;;;4.45;;
69854;SDS011;57146;48.140;16.304;2024-03-07T08:32:36;12.03;;;4.20;;
69854;SDS011;57146;48.140;16.304;2024-03-07T08:35:03;10.75;;;3.90;;
69854;SDS011;57146;48.140;16.304;2024-03-07T08:37:31;13.40;;;4.40;;
69854;SDS011;57146;48.140;16.304;2024-03-07T08:39:58;10.18;;;3.97;;
69854;SDS011;57146;48.140;16.304;2024-03-07T08:42:25;10.13;;;3.67;;
69854;SDS011;57146;48.140;16.304;2024-03-07T08:44:52;10.83;;;3.90;;
69854;SDS011;57146;48.140;16.304;2024-03-07T08:47:19;8.63;;;3.50;;
69854;SDS011;57146;48.140;16.304;2024-03-07T08:49:46;12.38;;;4.28;;
69854;SDS011;57146;48.140;16.304;2024-03-07T08:52:12;10.13;;;3.20;;
69854;SDS011;57146;48.140;16.304;2024-03-07T08:54:39;9.40;;;3.65;;
69854;SDS011;57146;48.140;16.304;2024-03-07T08:57:06;8.27;;;3.00;;
69854;SDS011;57146;48.140;16.304;2024-03-07T08:59:33;11.13;;;3.72;;
69854;SDS011;57146;48.140;16.304;2024-03-07T09:02:00;9.10;;;3.30;;
69854;SDS011;57146;48.140;16.304;2024-03-07T09:04:27;11.55;;;3.58;;
69854;SDS011;57146;48.140;16.304;2024-03-07T09:06:54;12.15;;;4.00;;
69854;SDS011;57146;48.140;16.304;2024-03-07T09:09:21;12.43;;;3.80;;
69854;SDS011;57146;48.140;16.304;2024-03-07T09:11:48;11.73;;;3.75;;
69854;SDS011;57146;48.140;16.304;2024-03-07T09:14:15;9.88;;;3.35;;
69854;SDS011;57146;48.140;16.304;2024-03-07T09:16:42;9.85;;;3.58;;
69854;SDS011;57146;48.140;16.304;2024-03-07T09:19:09;10.38;;;3.55;;
69854;SDS011;57146;48.140;16.304;2024-03-07T09:21:36;10.60;;;3.83;;
69854;SDS011;57146;48.140;16.304;2024-03-07T09:24:03;11.35;;;4.38;;
69854;SDS011;57146;48.140;16.304;2024-03-07T09:26:30;11.77;;;4.32;;
69854;SDS011;57146;48.140;16.304;2024-03-07T09:28:57;11.48;;;4.05;;
69854;SDS011;57146;48.140;16.304;2024-03-07T09:31:24;10.88;;;4.07;;
69854;SDS011;57146;48.140;16.304;2024-03-07T09:33:51;12.03;;;4.10;;
69854;SDS011;57146;48.140;16.304;2024-03-07T09:36:18;10.88;;;4.30;;
69854;SDS011;57146;48.140;16.304;2024-03-07T09:38:45;11.15;;;3.75;;
69854;SDS011;57146;48.140;16.304;2024-03-07T09:41:12;10.52;;;3.80;;
69854;SDS011;57146;48.140;16.304;2024-03-07T09:43:41;12.05;;;3.83;;
69854;SDS011;57146;48.140;16.304;2024-03-07T09:46:10;10.67;;;3.87;;
69854;SDS011;57146;48.140;16.304;2024-03-07T09:48:38;10.32;;;3.55;;
69854;SDS011;57146;48.140;16.304;2024-03-07T09:51:06;10.32;;;3.70;;
69854;SDS011;57146;48.140;16.304;2024-03-07T09:53:37;11.95;;;4.00;;
69854;SDS011;57146;48.140;16.304;2024-03-07T09:56:04;9.40;;;3.42;;
69854;SDS011;57146;48.140;16.304;2024-03-07T09:58:33;9.07;;;3.30;;
69854;SDS011;57146;48.140;16.304;2024-03-07T10:01:05;9.95;;;3.55;;
69854;SDS011;57146;48.140;16.304;2024-03-07T10:03:33;9.98;;;3.60;;
69854;SDS011;57146;48.140;16.304;2024-03-07T10:06:02;9.30;;;3.63;;
69854;SDS011;57146;48.140;16.304;2024-03-07T10:08:29;11.38;;;4.28;;
69854;SDS011;57146;48.140;16.304;2024-03-07T10:10:57;12.37;;;4.30;;
69854;SDS011;57146;48.140;16.304;2024-03-07T10:13:24;12.48;;;4.57;;
69854;SDS011;57146;48.140;16.304;2024-03-07T10:15:50;13.80;;;5.28;;
69854;SDS011;57146;48.140;16.304;2024-03-07T10:18:17;12.73;;;4.25;;
69854;SDS011;57146;48.140;16.304;2024-03-07T10:20:44;12.00;;;4.28;;
69854;SDS011;57146;48.140;16.304;2024-03-07T10:23:11;11.80;;;4.30;;
69854;SDS011;57146;48.140;16.304;2024-03-07T10:25:39;10.95;;;4.18;;
69854;SDS011;57146;48.140;16.304;2024-03-07T10:28:08;12.15;;;4.35;;
69854;SDS011;57146;48.140;16.304;2024-03-07T10:30:42;13.82;;;5.13;;
69854;SDS011;57146;48.140;16.304;2024-03-07T10:33:10;14.82;;;5.57;;
69854;SDS011;57146;48.140;16.304;2024-03-07T10:35:37;13.37;;;5.20;;
69854;SDS011;57146;48.140;16.304;2024-03-07T10:38:05;13.77;;;5.40;;
69854;SDS011;57146;48.140;16.304;2024-03-07T10:40:31;14.32;;;5.78;;
69854;SDS011;57146;48.140;16.304;2024-03-07T10:42:59;14.55;;;5.45;;
69854;SDS011;57146;48.140;16.304;2024-03-07T10:45:27;14.30;;;5.40;;
69854;SDS011;57146;48.140;16.304;2024-03-07T10:47:56;13.30;;;4.93;;
69854;SDS011;57146;48.140;16.304;2024-03-07T10:50:35;13.45;;;4.88;;
69854;SDS011;57146;48.140;16.304;2024-03-07T10:53:14;13.27;;;5.15;;
69854;SDS011;57146;48.140;16.304;2024-03-07T10:58:33;12.60;;;5.00;;
69854;SDS011;57146;48.140;16.304;2024-03-07T11:01:11;14.07;;;5.33;;
69854;SDS011;57146;48.140;16.304;2024-03-07T11:03:40;15.68;;;5.70;;
69854;SDS011;57146;48.140;16.304;2024-03-07T11:06:08;15.30;;;5.45;;
69854;SDS011;57146;48.140;16.304;2024-03-07T11:08:35;14.15;;;5.63;;
69854;SDS011;57146;48.140;16.304;2024-03-07T11:11:04;14.15;;;5.70;;
69854;SDS011;57146;48.140;16.304;2024-03-07T11:13:31;13.97;;;5.13;;
69854;SDS011;57146;48.140;16.304;2024-03-07T11:16:01;15.25;;;5.47;;
69854;SDS011;57146;48.140;16.304;2024-03-07T11:18:30;15.05;;;6.00;;
69854;SDS011;57146;48.140;16.304;2024-03-07T11:20:57;14.35;;;6.10;;
69854;SDS011;57146;48.140;16.304;2024-03-07T11:23:25;15.18;;;5.35;;
69854;SDS011;57146;48.140;16.304;2024-03-07T11:26:04;13.40;;;5.60;;
69854;SDS011;57146;48.140;16.304;2024-03-07T11:28:32;15.23;;;5.40;;
69854;SDS011;57146;48.140;16.304;2024-03-07T11:31:07;14.07;;;5.47;;
69854;SDS011;57146;48.140;16.304;2024-03-07T11:33:34;13.93;;;4.90;;
69854;SDS011;57146;48.140;16.304;2024-03-07T11:36:03;13.88;;;5.53;;
69854;SDS011;57146;48.140;16.304;2024-03-07T11:38:31;15.43;;;5.93;;
69854;SDS011;57146;48.140;16.304;2024-03-07T11:41:01;17.40;;;6.25;;
69854;SDS011;57146;48.140;16.304;2024-03-07T11:43:28;15.68;;;5.40;;
69854;SDS011;57146;48.140;16.304;2024-03-07T11:45:56;16.35;;;6.32;;
69854;SDS011;57146;48.140;16.304;2024-03-07T11:48:23;15.20;;;5.72;;
69854;SDS011;57146;48.140;16.304;2024-03-07T11:50:51;15.83;;;6.20;;
69854;SDS011;57146;48.140;16.304;2024-03-07T11:53:18;17.85;;;6.70;;
69854;SDS011;57146;48.140;16.304;2024-03-07T11:55:45;17.58;;;7.15;;
69854;SDS011;57146;48.140;16.304;2024-03-07T11:58:12;17.75;;;6.65;;
69854;SDS011;57146;48.140;16.304;2024-03-07T12:00:40;17.65;;;6.68;;
69854;SDS011;57146;48.140;16.304;2024-03-07T12:03:08;16.73;;;6.40;;
69854;SDS011;57146;48.140;16.304;2024-03-07T12:05:35;15.70;;;6.55;;
69854;SDS011;57146;48.140;16.304;2024-03-07T12:08:02;16.20;;;6.35;;
69854;SDS011;57146;48.140;16.304;2024-03-07T12:10:29;18.83;;;6.90;;
69854;SDS011;57146;48.140;16.304;2024-03-07T12:12:56;20.30;;;7.30;;
69854;SDS011;57146;48.140;16.304;2024-03-07T12:15:23;17.47;;;7.07;;
69854;SDS011;57146;48.140;16.304;2024-03-07T12:17:50;18.38;;;6.13;;
69854;SDS011;57146;48.140;16.304;2024-03-07T12:20:17;18.00;;;6.82;;
69854;SDS011;57146;48.140;16.304;2024-03-07T12:22:46;19.38;;;7.43;;
69854;SDS011;57146;48.140;16.304;2024-03-07T12:25:17;15.25;;;6.55;;
69854;SDS011;57146;48.140;16.304;2024-03-07T12:27:44;23.00;;;7.70;;
69854;SDS011;57146;48.140;16.304;2024-03-07T12:30:17;18.30;;;7.20;;
69854;SDS011;57146;48.140;16.304;2024-03-07T12:32:50;21.23;;;8.20;;
69854;SDS011;57146;48.140;16.304;2024-03-07T12:35:18;21.25;;;7.63;;
69854;SDS011;57146;48.140;16.304;2024-03-07T12:37:45;21.52;;;8.05;;
69854;SDS011;57146;48.140;16.304;2024-03-07T12:40:12;19.53;;;7.83;;
69854;SDS011;57146;48.140;16.304;2024-03-07T12:42:39;24.60;;;8.73;;
69854;SDS011;57146;48.140;16.304;2024-03-07T12:45:06;22.90;;;8.65;;
69854;SDS011;57146;48.140;16.304;2024-03-07T12:47:33;20.08;;;7.70;;
69854;SDS011;57146;48.140;16.304;2024-03-07T12:50:01;19.80;;;7.30;;
69854;SDS011;57146;48.140;16.304;2024-03-07T12:52:28;19.77;;;7.87;;
69854;SDS011;57146;48.140;16.304;2024-03-07T12:54:55;21.38;;;8.88;;
69854;SDS011;57146;48.140;16.304;2024-03-07T12:57:22;23.25;;;8.38;;
69854;SDS011;57146;48.140;16.304;2024-03-07T12:59:49;24.45;;;8.68;;
69854;SDS011;57146;48.140;16.304;2024-03-07T13:02:16;23.95;;;7.97;;
69854;SDS011;57146;48.140;16.304;2024-03-07T13:04:43;20.67;;;7.77;;
69854;SDS011;57146;48.140;16.304;2024-03-07T13:07:10;20.48;;;7.72;;
69854;SDS011;57146;48.140;16.304;2024-03-07T13:09:37;22.35;;;8.68;;
69854;SDS011;57146;48.140;16.304;2024-03-07T13:12:04;22.55;;;8.50;;
69854;SDS011;57146;48.140;16.304;2024-03-07T13:14:32;23.00;;;8.35;;
69854;SDS011;57146;48.140;16.304;2024-03-07T13:17:00;23.37;;;8.33;;
69854;SDS011;57146;48.140;16.304;2024-03-07T13:19:28;23.02;;;8.38;;
69854;SDS011;57146;48.140;16.304;2024-03-07T13:21:55;20.23;;;8.43;;
69854;SDS011;57146;48.140;16.304;2024-03-07T13:24:23;20.45;;;8.02;;
69854;SDS011;57146;48.140;16.304;2024-03-07T13:26:52;21.35;;;8.10;;
69854;SDS011;57146;48.140;16.304;2024-03-07T13:29:20;19.60;;;8.07;;
69854;SDS011;57146;48.140;16.304;2024-03-07T13:31:47;23.67;;;8.52;;
69854;SDS011;57146;48.140;16.304;2024-03-07T13:34:14;23.13;;;8.43;;
69854;SDS011;57146;48.140;16.304;2024-03-07T13:36:41;20.80;;;8.35;;
69854;SDS011;57146;48.140;16.304;2024-03-07T13:39:08;21.60;;;8.35;;
69854;SDS011;57146;48.140;16.304;2024-03-07T13:41:36;19.47;;;7.73;;
69854;SDS011;57146;48.140;16.304;2024-03-07T13:44:05;20.55;;;8.55;;
69854;SDS011;57146;48.140;16.304;2024-03-07T13:46:33;21.50;;;7.60;;
69854;SDS011;57146;48.140;16.304;2024-03-07T13:49:00;19.88;;;7.55;;
69854;SDS011;57146;48.140;16.304;2024-03-07T13:51:28;20.63;;;7.95;;
69854;SDS011;57146;48.140;16.304;2024-03-07T13:53:55;24.90;;;9.13;;
69854;SDS011;57146;48.140;16.304;2024-03-07T13:56:28;18.23;;;7.43;;
69854;SDS011;57146;48.140;16.304;2024-03-07T14:07:18;20.43;;;7.80;;
69854;SDS011;57146;48.140;16.304;2024-03-07T14:21:50;19.97;;;7.43;;
69854;SDS011;57146;48.140;16.304;2024-03-07T14:32:36;21.02;;;7.53;;
69854;SDS011;57146;48.140;16.304;2024-03-07T14:35:25;18.70;;;7.67;;
69854;SDS011;57146;48.140;16.304;2024-03-07T14:40:55;19.48;;;8.13;;
69854;SDS011;57146;48.140;16.304;2024-03-07T14:43:24;17.55;;;7.00;;
69854;SDS011;57146;48.140;16.304;2024-03-07T14:45:52;19.58;;;7.97;;
69854;SDS011;57146;48.140;16.304;2024-03-07T14:48:20;19.33;;;7.87;;
69854;SDS011;57146;48.140;16.304;2024-03-07T14:50:47;18.20;;;7.45;;
69854;SDS011;57146;48.140;16.304;2024-03-07T14:53:15;19.17;;;7.70;;
69854;SDS011;57146;48.140;16.304;2024-03-07T14:55:43;18.02;;;7.78;;
69854;SDS011;57146;48.140;16.304;2024-03-07T14:58:10;19.20;;;7.95;;
69854;SDS011;57146;48.140;16.304;2024-03-07T15:00:38;21.90;;;8.57;;
69854;SDS011;57146;48.140;16.304;2024-03-07T15:03:11;17.55;;;7.55;;